createdAt,value
2022-12-07T00:01:59.024Z,11.65
2022-12-07T00:04:29.033Z,11.57
2022-12-07T00:06:57.538Z,9.85
2022-12-07T00:09:24.394Z,10.93
2022-12-07T00:11:55.259Z,10.60
2022-12-07T00:14:24.807Z,8.57
2022-12-07T00:16:53.315Z,9.02
2022-12-07T00:19:27.666Z,8.55
2022-12-07T00:22:16.905Z,7.60
2022-12-07T00:24:53.400Z,7.80
2022-12-07T00:27:23.013Z,12.32
2022-12-07T00:29:54.243Z,7.82
2022-12-07T00:32:28.048Z,6.18
2022-12-07T00:35:20.731Z,8.93
2022-12-07T00:38:01.670Z,7.90
2022-12-07T00:40:32.545Z,5.97
2022-12-07T00:43:03.288Z,8.40
2022-12-07T00:45:30.795Z,7.07
2022-12-07T00:47:58.185Z,6.72
2022-12-07T00:50:25.080Z,5.80
2022-12-07T00:52:52.228Z,4.70
2022-12-07T00:55:19.188Z,6.65
2022-12-07T00:57:46.445Z,6.35
2022-12-07T01:00:13.541Z,6.38
2022-12-07T01:02:40.969Z,4.97
2022-12-07T01:05:08.173Z,6.18
2022-12-07T01:07:35.580Z,4.72
2022-12-07T01:10:02.615Z,3.92
2022-12-07T01:12:29.574Z,4.43
2022-12-07T01:14:56.721Z,4.28
2022-12-07T01:17:24.044Z,5.80
2022-12-07T01:19:50.811Z,3.65
2022-12-07T01:22:18.135Z,4.60
2022-12-07T01:24:44.980Z,5.47
2022-12-07T01:27:12.190Z,19.90
2022-12-07T01:29:39.329Z,5.28
2022-12-07T01:32:06.781Z,4.40
2022-12-07T01:34:33.654Z,3.80
2022-12-07T01:37:00.421Z,4.70
2022-12-07T01:39:28.028Z,3.95
2022-12-07T01:41:54.815Z,5.90
2022-12-07T01:44:34.210Z,3.60
2022-12-07T01:47:05.619Z,3.40
2022-12-07T01:49:53.749Z,4.47
2022-12-07T01:52:31.650Z,4.50
2022-12-07T01:55:03.037Z,3.95
2022-12-07T01:57:32.466Z,5.18
2022-12-07T02:00:01.077Z,5.60
2022-12-07T02:02:44.280Z,3.83
2022-12-07T02:05:12.660Z,3.08
2022-12-07T02:07:40.304Z,3.40
2022-12-07T02:10:20.011Z,4.55
2022-12-07T02:12:50.531Z,2.70
2022-12-07T02:15:18.151Z,3.35
2022-12-07T02:17:48.486Z,2.60
2022-12-07T02:20:44.746Z,2.42
2022-12-07T02:23:11.458Z,3.03
2022-12-07T02:26:16.674Z,5.47
2022-12-07T02:29:02.059Z,3.47
2022-12-07T02:31:32.484Z,3.78
2022-12-07T02:34:23.341Z,2.92
2022-12-07T02:36:58.152Z,2.85
2022-12-07T02:39:35.202Z,3.15
2022-12-07T02:42:19.997Z,2.88
2022-12-07T02:44:48.437Z,2.38
2022-12-07T02:47:19.256Z,4.20
2022-12-07T02:49:46.970Z,2.60
2022-12-07T02:52:14.335Z,2.88
2022-12-07T02:54:41.233Z,2.72
2022-12-07T02:57:14.265Z,2.78
2022-12-07T02:59:56.617Z,2.67
2022-12-07T03:02:31.569Z,2.70
2022-12-07T03:05:14.452Z,3.28
2022-12-07T03:07:50.467Z,3.00
2022-12-07T03:10:30.020Z,3.55
2022-12-07T03:13:20.457Z,3.30
2022-12-07T03:15:53.306Z,3.30
2022-12-07T03:18:24.244Z,3.75
2022-12-07T03:20:56.734Z,2.40
2022-12-07T03:23:26.287Z,3.92
2022-12-07T03:26:00.792Z,4.13
2022-12-07T03:28:33.895Z,3.80
2022-12-07T03:31:24.015Z,4.32
2022-12-07T03:34:08.142Z,4.00
2022-12-07T03:36:45.275Z,4.15
2022-12-07T03:39:42.315Z,3.53
2022-12-07T03:42:11.760Z,4.63
2022-12-07T03:44:39.584Z,3.47
2022-12-07T03:47:24.453Z,5.57
2022-12-07T03:50:14.643Z,3.80
2022-12-07T03:52:53.598Z,5.05
2022-12-07T03:55:30.982Z,3.67
2022-12-07T03:58:03.958Z,3.30
2022-12-07T04:00:30.870Z,3.85
2022-12-07T04:02:58.277Z,5.13
2022-12-07T04:05:25.942Z,4.22
2022-12-07T04:07:52.879Z,4.60
2022-12-07T04:10:20.258Z,4.57
2022-12-07T04:12:47.218Z,2.38
2022-12-07T04:15:20.105Z,3.15
2022-12-07T04:17:48.567Z,3.60
2022-12-07T04:20:15.842Z,3.20
2022-12-07T04:22:44.483Z,3.30
2022-12-07T04:25:14.264Z,3.75
2022-12-07T04:27:42.398Z,3.00
2022-12-07T04:30:10.800Z,3.55
2022-12-07T04:32:37.633Z,3.08
2022-12-07T04:35:07.753Z,6.75
2022-12-07T04:37:36.521Z,3.22
2022-12-07T04:40:03.906Z,3.58
2022-12-07T04:42:32.428Z,3.28
2022-12-07T04:44:59.624Z,3.20
2022-12-07T04:47:28.239Z,3.40
2022-12-07T04:49:56.107Z,4.60
2022-12-07T04:52:27.986Z,3.58
2022-12-07T04:54:58.129Z,2.80
2022-12-07T05:00:11.655Z,5.85
2022-12-07T05:02:42.269Z,4.55
2022-12-07T05:05:09.477Z,5.35
2022-12-07T05:07:36.438Z,5.97
2022-12-07T05:10:08.110Z,4.53
2022-12-07T05:12:34.937Z,6.40
2022-12-07T05:15:02.761Z,4.60
2022-12-07T05:17:29.521Z,6.13
2022-12-07T05:19:56.343Z,6.78
2022-12-07T05:22:25.658Z,5.90
2022-12-07T05:24:52.434Z,7.47
2022-12-07T05:27:19.720Z,9.52
2022-12-07T05:29:46.530Z,8.07
2022-12-07T05:32:13.422Z,7.93
2022-12-07T05:34:40.173Z,9.25
2022-12-07T05:37:06.966Z,7.60
2022-12-07T05:39:33.898Z,7.97
2022-12-07T05:42:16.253Z,9.02
2022-12-07T05:44:45.984Z,11.25
2022-12-07T05:47:14.885Z,12.32
2022-12-07T05:49:42.269Z,12.38
2022-12-07T05:52:10.211Z,10.85
2022-12-07T05:54:37.418Z,13.52
2022-12-07T05:57:04.643Z,23.42
2022-12-07T05:59:31.418Z,14.23
2022-12-07T06:02:04.751Z,15.70
2022-12-07T06:04:34.666Z,13.82
2022-12-07T06:07:02.686Z,11.57
2022-12-07T06:09:30.865Z,14.90
2022-12-07T06:12:19.583Z,22.75
2022-12-07T06:14:46.440Z,15.02
2022-12-07T06:17:13.767Z,16.98
2022-12-07T06:19:45.783Z,21.13
2022-12-07T06:22:20.551Z,17.55
2022-12-07T06:24:53.605Z,19.23
2022-12-07T06:27:22.147Z,17.88
2022-12-07T06:29:50.889Z,20.02
2022-12-07T06:32:19.172Z,18.15
2022-12-07T06:34:46.891Z,19.05
2022-12-07T06:37:22.904Z,21.60
2022-12-07T06:39:50.453Z,18.38
2022-12-07T06:42:17.407Z,12.73
2022-12-07T06:44:44.880Z,14.77
2022-12-07T06:47:39.625Z,19.52
2022-12-07T06:49:59.992Z,19.27
2022-12-07T06:52:27.314Z,17.60
2022-12-07T06:54:54.100Z,16.15
2022-12-07T06:57:21.704Z,15.18
2022-12-07T06:59:48.484Z,16.52
2022-12-07T07:02:15.291Z,17.67
2022-12-07T07:04:42.236Z,17.58
2022-12-07T07:07:11.835Z,20.10
2022-12-07T07:09:38.596Z,22.48
2022-12-07T07:12:05.435Z,18.08
2022-12-07T07:14:32.263Z,22.45
2022-12-07T07:16:59.574Z,13.90
2022-12-07T07:19:26.415Z,18.52
2022-12-07T07:21:53.252Z,17.67
2022-12-07T07:24:20.097Z,15.52
2022-12-07T07:26:47.332Z,15.00
2022-12-07T07:29:21.422Z,18.90
2022-12-07T07:31:48.337Z,18.55
2022-12-07T07:34:15.152Z,16.60
2022-12-07T07:36:42.246Z,18.10
2022-12-07T07:39:09.045Z,16.27
2022-12-07T07:41:35.919Z,16.40
2022-12-07T07:44:05.292Z,17.98
2022-12-07T07:46:34.773Z,20.50
2022-12-07T07:49:02.284Z,16.48
2022-12-07T07:51:29.843Z,17.02
2022-12-07T07:53:58.508Z,15.43
2022-12-07T07:56:28.369Z,16.45
2022-12-07T07:58:56.762Z,13.80
2022-12-07T08:01:24.105Z,14.25
2022-12-07T08:03:51.430Z,14.45
2022-12-07T08:06:18.567Z,15.05
2022-12-07T08:08:45.511Z,16.33
2022-12-07T08:11:13.738Z,15.90
2022-12-07T08:13:40.811Z,14.90
2022-12-07T08:16:12.963Z,16.52
2022-12-07T08:18:41.071Z,12.18
2022-12-07T08:21:13.594Z,13.10
2022-12-07T08:23:44.124Z,15.43
2022-12-07T08:26:13.896Z,15.73
2022-12-07T08:28:41.862Z,21.10
2022-12-07T08:31:12.435Z,17.45
2022-12-07T08:33:40.271Z,13.07
2022-12-07T08:36:11.779Z,19.23
2022-12-07T08:38:47.880Z,14.93
2022-12-07T08:41:27.363Z,18.23
2022-12-07T08:43:54.660Z,12.10
2022-12-07T08:46:38.094Z,13.25
2022-12-07T08:49:16.920Z,13.40
2022-12-07T08:51:45.821Z,13.30
2022-12-07T08:54:17.855Z,13.15
2022-12-07T08:56:46.962Z,13.50
2022-12-07T08:59:17.178Z,13.98
2022-12-07T09:01:45.866Z,14.52
2022-12-07T09:04:12.950Z,12.63
2022-12-07T09:06:40.946Z,18.52
2022-12-07T09:09:09.908Z,15.30
2022-12-07T09:11:37.145Z,14.45
2022-12-07T09:14:05.700Z,14.05
2022-12-07T09:16:37.908Z,14.75
2022-12-07T09:19:07.098Z,14.48
2022-12-07T09:21:37.979Z,10.23
2022-12-07T09:24:05.307Z,6.95
2022-12-07T09:26:38.122Z,11.57
2022-12-07T09:29:11.927Z,7.47
2022-12-07T09:31:39.555Z,7.57
2022-12-07T09:34:09.060Z,8.25
2022-12-07T09:36:38.768Z,8.43
2022-12-07T09:39:07.022Z,8.73
2022-12-07T09:41:34.332Z,12.85
2022-12-07T09:44:28.734Z,9.93
2022-12-07T09:46:57.707Z,8.25
2022-12-07T09:49:28.318Z,8.98
2022-12-07T09:52:19.508Z,6.70
2022-12-07T09:54:50.050Z,8.48
2022-12-07T09:57:19.008Z,5.50
2022-12-07T09:59:46.040Z,5.32
2022-12-07T10:02:40.002Z,9.18
2022-12-07T10:05:19.156Z,7.90
2022-12-07T10:07:52.165Z,7.60
2022-12-07T10:10:27.822Z,9.07
2022-12-07T10:13:04.931Z,4.75
2022-12-07T10:15:48.332Z,6.03
2022-12-07T10:18:31.980Z,7.50
2022-12-07T10:21:12.598Z,9.20
2022-12-07T10:23:59.531Z,8.32
2022-12-07T10:27:02.925Z,7.70
2022-12-07T10:29:37.112Z,6.07
2022-12-07T10:32:37.169Z,9.55
2022-12-07T10:35:26.115Z,8.63
2022-12-07T10:37:55.324Z,10.20
2022-12-07T10:40:38.655Z,6.35
2022-12-07T10:43:14.138Z,4.32
2022-12-07T10:46:14.506Z,4.72
2022-12-07T10:49:29.568Z,6.18
2022-12-07T10:52:27.555Z,7.72
2022-12-07T10:55:15.994Z,5.57
2022-12-07T10:58:07.920Z,3.83
2022-12-07T11:01:12.944Z,3.20
2022-12-07T11:04:16.067Z,4.57
2022-12-07T11:07:02.967Z,3.35
2022-12-07T11:12:44.743Z,4.82
2022-12-07T11:15:32.076Z,8.98
2022-12-07T11:18:07.383Z,4.65
2022-12-07T11:20:50.928Z,3.70
2022-12-07T11:23:50.175Z,6.60
2022-12-07T11:26:35.662Z,4.10
2022-12-07T11:29:09.654Z,4.68
2022-12-07T11:32:01.650Z,4.10
2022-12-07T11:34:57.166Z,4.00
2022-12-07T11:40:37.669Z,4.10
2022-12-07T11:43:21.248Z,7.75
2022-12-07T11:46:15.413Z,5.45
2022-12-07T11:49:05.435Z,4.28
2022-12-07T11:51:36.675Z,3.92
2022-12-07T11:54:13.805Z,3.90
2022-12-07T11:56:41.180Z,4.63
2022-12-07T11:59:22.913Z,4.28
2022-12-07T12:01:53.936Z,4.35
2022-12-07T12:04:45.867Z,4.90
2022-12-07T12:10:40.447Z,3.55
2022-12-07T12:16:33.569Z,8.32
2022-12-07T12:19:28.206Z,7.68
2022-12-07T12:22:09.097Z,4.57
2022-12-07T12:24:37.595Z,5.00
2022-12-07T12:27:11.481Z,4.07
2022-12-07T12:29:43.971Z,6.45
2022-12-07T12:32:16.541Z,6.82
2022-12-07T12:35:22.407Z,6.60
2022-12-07T12:37:49.699Z,7.32
2022-12-07T12:40:20.055Z,6.60
2022-12-07T12:42:56.392Z,6.25
2022-12-07T12:45:32.197Z,5.95
2022-12-07T12:48:00.021Z,5.40
2022-12-07T12:50:35.380Z,5.15
2022-12-07T12:53:22.923Z,4.72
2022-12-07T12:56:27.919Z,5.70
2022-12-07T12:59:25.270Z,7.10
2022-12-07T13:02:38.620Z,3.60
2022-12-07T13:05:09.383Z,4.03
2022-12-07T13:07:48.886Z,6.93
2022-12-07T13:10:24.837Z,4.60
2022-12-07T13:13:20.645Z,4.90
2022-12-07T13:15:52.387Z,5.95
2022-12-07T13:18:35.643Z,4.88
2022-12-07T13:21:09.555Z,7.35
2022-12-07T13:23:51.553Z,4.00
2022-12-07T13:26:37.349Z,3.72
2022-12-07T13:29:25.668Z,6.93
2022-12-07T13:31:58.061Z,4.07
2022-12-07T13:34:39.706Z,12.35
2022-12-07T13:37:28.067Z,5.18
2022-12-07T13:40:00.479Z,5.88
2022-12-07T13:42:32.557Z,4.85
2022-12-07T13:45:02.743Z,4.72
2022-12-07T13:47:32.837Z,6.55
2022-12-07T13:49:59.812Z,9.95
2022-12-07T13:52:28.776Z,6.10
2022-12-07T13:55:23.494Z,14.10
2022-12-07T13:57:53.136Z,7.47
2022-12-07T14:00:26.304Z,8.13
2022-12-07T14:03:03.454Z,7.18
2022-12-07T14:05:33.149Z,7.93
2022-12-07T14:08:02.393Z,9.82
2022-12-07T14:10:34.534Z,6.40
2022-12-07T14:13:03.920Z,8.82
2022-12-07T14:15:35.738Z,9.73
2022-12-07T14:18:07.400Z,8.55
2022-12-07T14:20:42.460Z,6.53
2022-12-07T14:23:29.180Z,6.63
2022-12-07T14:26:14.509Z,7.10
2022-12-07T14:28:42.662Z,6.43
2022-12-07T14:31:30.741Z,8.35
2022-12-07T14:34:03.228Z,7.90
2022-12-07T14:36:30.380Z,11.48
2022-12-07T14:38:59.315Z,6.47
2022-12-07T14:41:47.761Z,11.15
2022-12-07T14:44:24.812Z,5.80
2022-12-07T14:49:41.033Z,7.13
2022-12-07T14:55:24.227Z,10.43
2022-12-07T14:57:54.766Z,6.70
2022-12-07T15:00:23.641Z,8.18
2022-12-07T15:02:51.410Z,8.48
2022-12-07T15:05:20.122Z,6.80
2022-12-07T15:07:48.479Z,6.70
2022-12-07T15:10:34.185Z,9.70
2022-12-07T15:13:21.348Z,8.63
2022-12-07T15:15:52.472Z,9.77
2022-12-07T15:18:23.574Z,10.23
2022-12-07T15:20:51.990Z,12.27
2022-12-07T15:23:18.893Z,10.15
2022-12-07T15:25:48.717Z,9.45
2022-12-07T15:28:16.256Z,7.53
2022-12-07T15:30:44.556Z,7.45
2022-12-07T15:33:13.361Z,11.18
2022-12-07T15:35:45.010Z,12.60
2022-12-07T15:38:15.038Z,9.40
2022-12-07T15:40:42.377Z,7.10
2022-12-07T15:43:32.351Z,9.27
2022-12-07T15:46:00.608Z,9.07
2022-12-07T15:48:28.892Z,8.98
2022-12-07T15:51:07.690Z,8.65
2022-12-07T15:53:34.977Z,9.57
2022-12-07T15:56:01.986Z,9.10
2022-12-07T15:58:28.940Z,11.10
2022-12-07T16:00:55.928Z,8.38
2022-12-07T16:03:23.489Z,9.25
2022-12-07T16:05:54.275Z,12.82
2022-12-07T16:08:22.463Z,10.38
2022-12-07T16:10:49.343Z,12.60
2022-12-07T16:13:16.234Z,11.05
2022-12-07T16:15:43.797Z,10.98
2022-12-07T16:18:10.958Z,13.07
2022-12-07T16:20:38.411Z,11.35
2022-12-07T16:23:05.325Z,12.93
2022-12-07T16:25:32.829Z,8.93
2022-12-07T16:28:05.318Z,10.15
2022-12-07T16:30:32.747Z,10.30
2022-12-07T16:33:02.556Z,8.43
2022-12-07T16:35:30.147Z,13.25
2022-12-07T16:37:57.073Z,9.73
2022-12-07T16:40:24.650Z,12.60
2022-12-07T16:42:51.980Z,11.15
2022-12-07T16:45:21.123Z,10.25
2022-12-07T16:47:49.466Z,8.23
2022-12-07T16:50:16.610Z,9.13
2022-12-07T16:52:43.590Z,9.18
2022-12-07T16:55:11.069Z,9.30
2022-12-07T16:57:38.943Z,9.05
2022-12-07T17:00:07.081Z,7.85
2022-12-07T17:02:34.016Z,10.25
2022-12-07T17:05:01.850Z,7.10
2022-12-07T17:07:34.278Z,9.88
2022-12-07T17:10:01.217Z,7.32
2022-12-07T17:12:28.139Z,8.90
2022-12-07T17:15:30.365Z,6.93
2022-12-07T17:17:59.231Z,8.77
2022-12-07T17:20:28.529Z,7.50
2022-12-07T17:22:55.560Z,9.95
2022-12-07T17:25:26.051Z,8.80
2022-12-07T17:27:53.894Z,12.88
2022-12-07T17:30:21.149Z,16.75
2022-12-07T17:32:48.150Z,14.88
2022-12-07T17:35:41.318Z,14.93
2022-12-07T17:38:09.439Z,17.10
2022-12-07T17:40:36.940Z,12.93
2022-12-07T17:43:04.347Z,13.57
2022-12-07T17:45:32.209Z,10.38
2022-12-07T17:47:59.308Z,15.35
2022-12-07T17:50:45.636Z,12.32
2022-12-07T17:53:14.373Z,19.73
2022-12-07T17:56:12.090Z,16.40
2022-12-07T17:58:29.208Z,11.10
2022-12-07T18:00:56.248Z,14.05
2022-12-07T18:03:26.562Z,18.92
2022-12-07T18:05:53.866Z,14.68
2022-12-07T18:08:21.856Z,14.75
2022-12-07T18:10:49.241Z,11.48
2022-12-07T18:13:34.945Z,13.23
2022-12-07T18:16:06.722Z,12.48
2022-12-07T18:18:34.150Z,12.13
2022-12-07T18:21:05.901Z,12.35
2022-12-07T18:23:34.160Z,14.25
2022-12-07T18:26:13.512Z,13.00
2022-12-07T18:28:46.763Z,8.55
2022-12-07T18:31:15.775Z,10.75
2022-12-07T18:33:46.138Z,8.20
2022-12-07T18:36:15.419Z,11.52
2022-12-07T18:38:46.384Z,12.25
2022-12-07T18:41:14.716Z,9.57
2022-12-07T18:43:42.828Z,11.77
2022-12-07T18:46:19.086Z,10.40
2022-12-07T18:48:47.373Z,8.80
2022-12-07T18:51:15.757Z,10.82
2022-12-07T18:53:43.361Z,10.25
2022-12-07T18:56:24.496Z,9.65
2022-12-07T18:59:22.258Z,13.75
2022-12-07T19:02:01.978Z,9.88
2022-12-07T19:07:14.281Z,9.68
2022-12-07T19:12:24.523Z,11.80
2022-12-07T19:14:55.926Z,13.10
2022-12-07T19:17:31.994Z,15.50
2022-12-07T19:20:17.462Z,10.77
2022-12-07T19:22:47.022Z,15.85
2022-12-07T19:33:29.878Z,9.57
2022-12-07T19:35:59.219Z,11.75
2022-12-07T19:38:41.813Z,12.75
2022-12-07T19:44:55.282Z,14.10
2022-12-07T19:47:29.865Z,11.02
2022-12-07T19:50:07.536Z,13.38
2022-12-07T19:55:49.969Z,19.00
2022-12-07T19:58:18.351Z,18.00
2022-12-07T20:00:50.238Z,15.43
2022-12-07T20:08:57.114Z,14.15
2022-12-07T20:11:43.437Z,10.88
2022-12-07T20:14:13.493Z,12.75
2022-12-07T20:16:41.701Z,12.23
2022-12-07T20:19:13.875Z,9.02
2022-12-07T20:21:42.780Z,13.38
2022-12-07T20:24:19.603Z,12.63
2022-12-07T20:26:51.606Z,10.15
2022-12-07T20:29:23.680Z,11.60
2022-12-07T20:31:52.327Z,12.10
2022-12-07T20:34:26.629Z,10.23
2022-12-07T20:36:57.184Z,13.75
2022-12-07T20:39:31.716Z,14.52
2022-12-07T20:45:07.172Z,13.70
2022-12-07T20:47:38.566Z,14.20
2022-12-07T20:50:12.978Z,15.10
2022-12-07T20:52:43.623Z,7.57
2022-12-07T20:58:08.155Z,11.70
2022-12-07T21:00:44.999Z,12.57
2022-12-07T21:03:12.681Z,9.90
2022-12-07T21:05:45.989Z,10.90
2022-12-07T21:08:20.278Z,10.80
2022-12-07T21:10:52.338Z,9.20
2022-12-07T21:13:19.947Z,10.23
2022-12-07T21:15:49.939Z,24.10
2022-12-07T21:18:20.898Z,11.48
2022-12-07T21:20:47.767Z,5.28
2022-12-07T21:23:15.049Z,7.75
2022-12-07T21:25:45.129Z,6.50
2022-12-07T21:28:15.390Z,8.35
2022-12-07T21:31:11.435Z,12.40
2022-12-07T21:33:38.370Z,8.70
2022-12-07T21:36:08.024Z,10.43
2022-12-07T21:38:38.037Z,8.75
2022-12-07T21:41:16.043Z,8.77
2022-12-07T21:43:50.401Z,7.57
2022-12-07T21:46:19.381Z,7.90
2022-12-07T21:48:57.419Z,6.32
2022-12-07T21:51:27.613Z,9.98
2022-12-07T21:53:57.266Z,7.05
2022-12-07T21:56:29.996Z,6.68
2022-12-07T21:59:04.836Z,7.95
2022-12-07T22:01:35.917Z,7.35
2022-12-07T22:04:04.350Z,7.55
2022-12-07T22:06:31.808Z,7.80
2022-12-07T22:09:00.173Z,8.02
2022-12-07T22:11:27.527Z,6.47
2022-12-07T22:14:13.058Z,9.13
2022-12-07T22:16:48.848Z,10.38
2022-12-07T22:19:19.304Z,8.18
2022-12-07T22:21:47.887Z,8.00
2022-12-07T22:24:15.191Z,8.82
2022-12-07T22:26:43.501Z,7.65
2022-12-07T22:29:10.946Z,8.48
2022-12-07T22:31:38.500Z,5.80
2022-12-07T22:34:17.143Z,9.45
2022-12-07T22:36:45.006Z,6.40
2022-12-07T22:39:16.842Z,8.82
2022-12-07T22:41:46.720Z,7.70
2022-12-07T22:44:13.908Z,9.95
2022-12-07T22:46:42.128Z,8.88
2022-12-07T22:49:09.176Z,9.40
2022-12-07T22:51:39.229Z,8.35
2022-12-07T22:54:08.887Z,10.35
2022-12-07T22:56:38.846Z,9.63
2022-12-07T22:59:07.135Z,10.95
2022-12-07T23:01:34.681Z,12.23
2022-12-07T23:04:02.010Z,9.68
2022-12-07T23:06:31.499Z,12.32
2022-12-07T23:09:00.805Z,11.07
2022-12-07T23:11:49.398Z,10.68
2022-12-07T23:14:19.562Z,11.13
2022-12-07T23:16:47.096Z,9.73
2022-12-07T23:19:14.196Z,13.73
2022-12-07T23:21:41.190Z,9.88
2022-12-07T23:24:09.088Z,15.25
2022-12-07T23:26:35.879Z,13.40
2022-12-07T23:29:03.348Z,9.30
2022-12-07T23:31:30.244Z,11.10
2022-12-07T23:33:57.735Z,11.52
2022-12-07T23:36:26.854Z,12.75
2022-12-07T23:38:55.943Z,10.18
2022-12-07T23:41:25.694Z,12.52
2022-12-07T23:43:58.258Z,9.05
2022-12-07T23:46:30.874Z,9.25
2022-12-07T23:49:00.499Z,8.82
2022-12-07T23:51:27.873Z,7.35
2022-12-07T23:53:55.489Z,5.93
2022-12-07T23:56:24.778Z,7.22
2022-12-07T23:58:54.200Z,7.55
